Time;durP1;ratioP1;P1;durP2;ratioP2;P2;SDS_P1;SDS_P2;PMS_P1;PMS_P2;Temp;Humidity;BMP_temperature;BMP_pressure;BME280_temperature;BME280_humidity;BME280_pressure;Samples;Min_cycle;Max_cycle;Signal;HPM_P1;HPM_P2
2023/05/27 00:01:36;;;;;;;;;;;;;;;17.62;66.75;100715.34;5070595;28;20405;-56
2023/05/27 00:04:01;;;;;;;;;;;;;;;17.64;66.29;100716.13;5068843;28;19920;-56
2023/05/27 00:06:27;;;;;;;;;;;;;;;17.62;66.35;100715.34;5070402;28;19920;-56
2023/05/27 00:08:52;;;;;;;;;;;;;;;17.61;65.73;100715.41;5070049;28;19955;-56
2023/05/27 00:11:17;;;;;;;;;;;;;;;17.55;65.33;100716.56;5054671;28;19916;-55
2023/05/27 00:13:42;;;;;;;;;;;;;;;17.60;65.75;100713.66;5050137;28;20292;-55
2023/05/27 00:16:08;;;;;;;;;;;;;;;17.58;65.44;100711.03;5052287;28;19966;-56
2023/05/27 00:18:33;;;;;;;;;;;;;;;17.50;64.85;100712.34;5069922;28;19915;-56
2023/05/27 00:20:59;;;;;;;;;;;;;;;17.51;64.85;100709.59;5070342;28;19913;-56
2023/05/27 00:23:24;;;;;;;;;;;;;;;17.57;65.35;100703.03;5069969;28;19948;-56
2023/05/27 00:25:50;;;;;;;;;;;;;;;17.50;64.68;100709.66;5067541;28;19916;-56
2023/05/27 00:28:15;;;;;;;;;;;;;;;17.48;64.39;100704.38;5069348;28;20476;-55
2023/05/27 00:30:41;;;;;;;;;;;;;;;17.46;64.98;100702.72;5069742;28;20459;-56
2023/05/27 00:33:06;;;;;;;;;;;;;;;17.48;65.03;100700.84;5068657;28;19917;-56
2023/05/27 00:35:31;;;;;;;;;;;;;;;17.44;64.27;100708.16;5057513;28;20785;-56
2023/05/27 00:37:56;;;;;;;;;;;;;;;17.45;63.64;100709.00;5067804;28;19920;-56
2023/05/27 00:40:23;;;;;;;;;;;;;;;17.42;64.13;100704.66;5069515;28;19919;-56
2023/05/27 00:42:48;;;;;;;;;;;;;;;17.40;63.77;100701.16;5069257;28;19935;-56
2023/05/27 00:45:13;;;;;;;;;;;;;;;17.31;63.27;100701.63;5054525;28;20361;-56
2023/05/27 00:47:39;;;;;;;;;;;;;;;17.37;63.02;100700.44;5061339;28;19920;-56
2023/05/27 00:50:05;;;;;;;;;;;;;;;17.38;62.77;100697.66;5069197;28;19912;-56
2023/05/27 00:52:31;;;;;;;;;;;;;;;17.34;63.30;100690.72;5068471;28;19944;-56
2023/05/27 00:54:56;;;;;;;;;;;;;;;17.28;63.81;100692.84;5068872;28;19912;-56
2023/05/27 00:57:22;;;;;;;;;;;;;;;17.27;62.62;100689.28;5066985;28;19916;-56
2023/05/27 00:59:47;;;;;;;;;;;;;;;17.31;62.93;100701.63;5065975;28;20402;-56
2023/05/27 01:02:13;;;;;;;;;;;;;;;17.24;64.00;100694.81;5057435;28;20001;-56
2023/05/27 01:04:38;;;;;;;;;;;;;;;17.19;63.25;100690.59;5055208;28;19916;-56
2023/05/27 01:07:08;;;;;;;;;;;;;;;17.25;63.45;100701.06;5069489;28;19919;-56
2023/05/27 01:09:42;;;;;;;;;;;;;;;17.15;63.29;100691.69;5047980;28;19920;-56
2023/05/27 01:12:17;;;;;;;;;;;;;;;17.13;63.06;100687.25;5049401;28;20007;-56
2023/05/27 01:14:43;;;;;;;;;;;;;;;17.08;63.71;100685.75;5049938;28;19920;-56
2023/05/27 01:17:09;;;;;;;;;;;;;;;17.04;63.14;100690.41;5055844;28;19916;-56
2023/05/27 01:19:36;;;;;;;;;;;;;;;17.02;63.54;100689.59;5070105;28;19978;-56
2023/05/27 01:22:01;;;;;;;;;;;;;;;17.00;63.99;100690.63;5075828;28;19919;-56
2023/05/27 01:24:27;;;;;;;;;;;;;;;16.95;63.95;100682.75;5076315;28;19920;-56
2023/05/27 01:26:53;;;;;;;;;;;;;;;16.96;63.87;100680.97;5075191;28;20203;-56
2023/05/27 01:29:19;;;;;;;;;;;;;;;16.94;63.69;100686.41;5076067;28;20413;-56
2023/05/27 01:31:52;;;;;;;;;;;;;;;16.94;64.51;100677.47;5074922;28;19916;-56
2023/05/27 01:34:20;;;;;;;;;;;;;;;16.93;64.28;100681.94;5076402;28;19919;-56
2023/05/27 01:36:48;;;;;;;;;;;;;;;16.84;63.58;100670.78;5076161;28;19908;-56
2023/05/27 01:39:15;;;;;;;;;;;;;;;16.82;63.30;100675.34;5075209;28;19915;-56
2023/05/27 01:41:41;;;;;;;;;;;;;;;16.79;64.15;100670.13;5075965;28;20049;-56
2023/05/27 01:44:07;;;;;;;;;;;;;;;16.75;64.20;100665.88;5075972;28;19908;-56
2023/05/27 01:46:32;;;;;;;;;;;;;;;16.74;64.42;100661.41;5075270;28;21827;-56
2023/05/27 01:48:58;;;;;;;;;;;;;;;16.73;64.29;100670.44;5075417;28;20363;-56
2023/05/27 01:51:23;;;;;;;;;;;;;;;16.67;64.99;100662.66;5075648;28;19912;-56
2023/05/27 01:53:48;;;;;;;;;;;;;;;16.65;64.25;100659.19;5074545;28;20409;-56
2023/05/27 01:56:14;;;;;;;;;;;;;;;16.56;64.54;100654.22;5075480;28;19912;-56
2023/05/27 01:58:39;;;;;;;;;;;;;;;16.56;64.27;100654.22;5075927;28;19923;-56
2023/05/27 02:01:05;;;;;;;;;;;;;;;16.29;64.35;100615.22;5075840;28;20466;-56
2023/05/27 02:03:30;;;;;;;;;;;;;;;16.49;64.33;100650.09;5074691;28;19916;-56
2023/05/27 02:05:55;;;;;;;;;;;;;;;16.55;65.18;100645.31;5075417;28;19971;-56
2023/05/27 02:08:21;;;;;;;;;;;;;;;16.51;64.31;100642.81;5075805;28;19912;-56
2023/05/27 02:10:47;;;;;;;;;;;;;;;16.51;64.81;100641.03;5074668;28;19924;-56
2023/05/27 02:13:12;;;;;;;;;;;;;;;16.46;64.57;100644.84;5064322;28;19958;-55
2023/05/27 02:15:38;;;;;;;;;;;;;;;16.40;64.71;100640.63;5054700;28;19923;-56
2023/05/27 02:18:04;;;;;;;;;;;;;;;16.42;63.98;100643.22;5069223;28;19916;-56
2023/05/27 02:20:30;;;;;;;;;;;;;;;16.44;63.56;100641.34;5074655;28;19912;-56
2023/05/27 02:22:55;;;;;;;;;;;;;;;16.47;63.88;100641.25;5055801;28;20573;-56
2023/05/27 02:25:20;;;;;;;;;;;;;;;16.46;64.26;100639.47;5074285;28;19920;-56
2023/05/27 02:27:48;;;;;;;;;;;;;;;16.40;64.75;100639.75;5074578;28;19916;-56
2023/05/27 02:30:14;;;;;;;;;;;;;;;16.32;64.38;100642.78;5074845;28;19920;-56
2023/05/27 02:32:40;;;;;;;;;;;;;;;16.30;64.19;100639.31;5070602;28;19916;-56
2023/05/27 02:35:05;;;;;;;;;;;;;;;16.28;64.65;100640.28;5069211;28;19916;-56
2023/05/27 02:37:31;;;;;;;;;;;;;;;16.29;64.46;100637.53;5070650;28;19955;-56
2023/05/27 02:39:56;;;;;;;;;;;;;;;16.28;64.81;100637.63;5072286;28;19974;-56
2023/05/27 02:42:21;;;;;;;;;;;;;;;16.25;64.17;100635.06;5071946;28;19946;-56
2023/05/27 02:44:47;;;;;;;;;;;;;;;16.22;65.11;100627.16;5071461;28;19952;-55
2023/05/27 02:47:12;;;;;;;;;;;;;;;16.17;64.73;100626.50;5071783;28;19916;-56
2023/05/27 02:49:37;;;;;;;;;;;;;;;16.16;64.37;100633.66;5071325;28;20585;-56
2023/05/27 02:52:02;;;;;;;;;;;;;;;16.17;64.92;100623.81;5051966;28;19924;-56
2023/05/27 02:54:28;;;;;;;;;;;;;;;16.12;65.13;100628.53;5051927;28;19916;-56
2023/05/27 02:56:53;;;;;;;;;;;;;;;16.13;64.90;100627.59;5065917;28;20019;-56
2023/05/27 02:59:18;;;;;;;;;;;;;;;16.10;63.94;100627.72;5071753;28;20319;-56
2023/05/27 03:01:43;;;;;;;;;;;;;;;16.10;64.57;100620.53;5071613;28;19919;-56
2023/05/27 03:04:09;;;;;;;;;;;;;;;16.10;64.67;100619.66;5070569;28;19917;-56
2023/05/27 03:06:35;;;;;;;;;;;;;;;16.05;65.19;100617.19;5071782;28;19951;-56
2023/05/27 03:09:01;;;;;;;;;;;;;;;15.97;65.24;100622.03;5071611;28;19908;-56
2023/05/27 03:11:26;;;;;;;;;;;;;;;15.99;65.16;100621.97;5059735;28;20380;-56
2023/05/27 03:13:51;;;;;;;;;;;;;;;15.96;64.46;100636.41;5051261;28;19994;-56
2023/05/27 03:16:19;;;;;;;;;;;;;;;15.96;65.15;100638.22;5051473;28;19940;-56
2023/05/27 03:18:44;;;;;;;;;;;;;;;16.00;65.57;100634.44;5054103;28;20340;-56
2023/05/27 03:21:10;;;;;;;;;;;;;;;15.93;65.34;100638.34;5071413;28;19955;-56
2023/05/27 03:23:35;;;;;;;;;;;;;;;15.89;65.03;100636.72;5071130;28;19912;-56
2023/05/27 03:26:00;;;;;;;;;;;;;;;15.88;65.24;100640.38;5070184;28;19912;-56
2023/05/27 03:28:26;;;;;;;;;;;;;;;15.81;65.66;100643.28;5071295;28;20003;-56
2023/05/27 03:30:55;;;;;;;;;;;;;;;15.76;65.82;100645.31;5070317;28;19912;-56
2023/05/27 03:33:21;;;;;;;;;;;;;;;15.81;65.65;100645.13;5071482;28;19916;-57
2023/05/27 03:35:46;;;;;;;;;;;;;;;15.78;65.96;100643.44;5071133;28;19914;-56
2023/05/27 03:38:11;;;;;;;;;;;;;;;15.71;66.09;100641.09;5069332;28;19989;-56
2023/05/27 03:40:36;;;;;;;;;;;;;;;15.71;66.18;100643.78;5069414;28;20031;-56
2023/05/27 03:43:02;;;;;;;;;;;;;;;15.65;65.19;100642.22;5068564;28;19912;-56
2023/05/27 03:45:27;;;;;;;;;;;;;;;15.64;66.16;100643.19;5066408;28;19916;-56
2023/05/27 03:47:52;;;;;;;;;;;;;;;15.63;65.31;100651.28;5067062;28;20342;-56
2023/05/27 03:50:17;;;;;;;;;;;;;;;15.57;66.19;100647.06;5068617;28;19935;-55
2023/05/27 03:52:43;;;;;;;;;;;;;;;15.60;67.17;100648.75;5068755;28;20306;-56
2023/05/27 03:55:08;;;;;;;;;;;;;;;15.56;67.14;100656.06;5070666;28;19923;-56
2023/05/27 03:57:33;;;;;;;;;;;;;;;15.57;66.21;100657.78;5070662;28;19918;-56
2023/05/27 03:59:59;;;;;;;;;;;;;;;15.59;66.73;100642.50;5053086;28;19916;-56
2023/05/27 04:02:24;;;;;;;;;;;;;;;15.58;66.15;100648.78;5070950;28;20252;-56
2023/05/27 04:04:50;;;;;;;;;;;;;;;15.59;65.75;100650.56;5069706;28;19975;-57
2023/05/27 04:07:17;;;;;;;;;;;;;;;15.57;65.68;100644.38;5069463;28;19957;-56
2023/05/27 04:09:43;;;;;;;;;;;;;;;15.57;65.79;100647.06;5070340;28;19908;-56
2023/05/27 04:12:08;;;;;;;;;;;;;;;15.63;65.80;100643.25;5069756;28;20399;-56
2023/05/27 04:14:33;;;;;;;;;;;;;;;15.59;66.43;100645.19;5069933;28;20019;-57
2023/05/27 04:16:58;;;;;;;;;;;;;;;15.61;67.00;100648.69;5070329;28;19919;-56
2023/05/27 04:19:24;;;;;;;;;;;;;;;15.60;65.86;100652.28;5068601;28;20033;-56
2023/05/27 04:21:49;;;;;;;;;;;;;;;15.58;66.16;100639.91;5052530;28;19920;-56
2023/05/27 04:24:14;;;;;;;;;;;;;;;15.60;66.17;100644.25;5058767;28;19913;-56
2023/05/27 04:26:40;;;;;;;;;;;;;;;15.68;66.85;100644.78;5070220;28;19912;-56
2023/05/27 04:29:09;;;;;;;;;;;;;;;15.71;66.91;100649.16;5070123;28;20049;-56
2023/05/27 04:31:36;;;;;;;;;;;;;;;15.76;66.38;100642.63;5069468;28;19999;-57
2023/05/27 04:34:02;;;;;;;;;;;;;;;15.81;66.51;100651.34;5068711;28;19923;-56
2023/05/27 04:36:32;;;;;;;;;;;;;;;15.81;66.87;100651.34;5049518;28;20445;-57
2023/05/27 04:39:00;;;;;;;;;;;;;;;15.80;66.32;100644.25;5069842;28;19908;-56
2023/05/27 04:41:27;;;;;;;;;;;;;;;15.86;65.67;100652.97;5069133;28;21057;-56
2023/05/27 04:43:52;;;;;;;;;;;;;;;15.93;65.76;100643.72;5068225;28;20014;-56
2023/05/27 04:46:17;;;;;;;;;;;;;;;15.96;65.29;100643.56;5050000;28;20287;-56
2023/05/27 04:48:44;;;;;;;;;;;;;;;15.94;65.84;100646.34;5062479;28;19985;-57
2023/05/27 04:51:09;;;;;;;;;;;;;;;16.02;65.07;100645.97;5069893;28;19915;-57
2023/05/27 04:53:35;;;;;;;;;;;;;;;16.08;64.95;100651.09;5068816;28;19916;-57
2023/05/27 04:56:00;;;;;;;;;;;;;;;16.00;65.23;100645.16;5069119;28;20572;-56
2023/05/27 04:58:25;;;;;;;;;;;;;;;16.13;65.07;100643.72;5069717;28;20006;-57
2023/05/27 05:00:53;;;;;;;;;;;;;;;16.14;65.01;100642.75;5068983;28;19916;-57
2023/05/27 05:03:21;;;;;;;;;;;;;;;16.14;63.89;100640.06;5069705;28;19920;-57
2023/05/27 05:05:51;;;;;;;;;;;;;;;16.21;63.85;100639.69;5068576;28;19963;-56
2023/05/27 05:08:16;;;;;;;;;;;;;;;16.23;63.76;100642.31;5069862;28;19916;-57
2023/05/27 05:10:42;;;;;;;;;;;;;;;16.32;63.97;100645.47;5069372;28;20257;-57
2023/05/27 05:13:07;;;;;;;;;;;;;;;16.41;62.95;100647.72;5057442;28;19913;-56
2023/05/27 05:15:32;;;;;;;;;;;;;;;16.57;62.98;100650.63;5068476;28;19916;-57
2023/05/27 05:17:57;;;;;;;;;;;;;;;16.77;63.99;100655.91;5069572;28;19912;-57
2023/05/27 05:20:23;;;;;;;;;;;;;;;16.78;62.73;100653.16;5069074;28;19916;-57
2023/05/27 05:22:48;;;;;;;;;;;;;;;16.77;62.29;100647.84;5069525;28;19973;-56
2023/05/27 05:25:14;;;;;;;;;;;;;;;16.86;62.47;100656.34;5069260;28;20595;-57
2023/05/27 05:27:39;;;;;;;;;;;;;;;16.86;61.56;100650.97;5069460;28;19915;-57
2023/05/27 05:30:05;;;;;;;;;;;;;;;16.95;61.90;100660.41;5068794;28;19909;-57
2023/05/27 05:32:30;;;;;;;;;;;;;;;16.96;62.27;100652.28;5069547;28;19969;-57
2023/05/27 05:34:56;;;;;;;;;;;;;;;17.11;62.04;100650.66;5068278;28;20287;-57
2023/05/27 05:37:21;;;;;;;;;;;;;;;17.07;61.22;100651.72;5069127;28;19952;-57
2023/05/27 05:39:46;;;;;;;;;;;;;;;16.99;61.05;100651.25;5068272;28;19966;-56
2023/05/27 05:42:12;;;;;;;;;;;;;;;17.10;61.12;100659.63;5067262;28;19919;-57
2023/05/27 05:44:37;;;;;;;;;;;;;;;17.11;60.50;100666.78;5068195;28;20329;-57
2023/05/27 05:47:02;;;;;;;;;;;;;;;17.26;59.56;100655.28;5067443;28;20014;-57
2023/05/27 05:49:28;;;;;;;;;;;;;;;17.29;60.29;100649.75;5067916;28;20321;-57
2023/05/27 05:51:53;;;;;;;;;;;;;;;17.38;59.77;100653.78;5068156;28;19912;-57
2023/05/27 05:54:19;;;;;;;;;;;;;;;17.57;59.84;100660.88;5067430;28;19993;-57
2023/05/27 05:56:44;;;;;;;;;;;;;;;17.65;59.09;100649.72;5069087;28;19916;-56
2023/05/27 05:59:09;;;;;;;;;;;;;;;17.72;57.78;100648.47;5069084;28;19909;-57
2023/05/27 06:01:35;;;;;;;;;;;;;;;17.78;58.16;100649.00;5050148;28;19920;-57
2023/05/27 06:04:04;;;;;;;;;;;;;;;17.87;59.03;100647.66;5068780;28;20355;-57
2023/05/27 06:06:29;;;;;;;;;;;;;;;18.07;59.26;100655.56;5068890;28;20037;-56
2023/05/27 06:08:54;;;;;;;;;;;;;;;18.09;59.09;100654.53;5072738;28;19908;-56
2023/05/27 06:11:20;;;;;;;;;;;;;;;18.17;57.47;100657.66;5072331;28;19932;-57
2023/05/27 06:13:45;;;;;;;;;;;;;;;18.23;56.36;100648.41;5072290;28;19918;-57
2023/05/27 06:16:10;;;;;;;;;;;;;;;18.10;57.43;100623.09;5063239;28;19913;-57
2023/05/27 06:18:36;;;;;;;;;;;;;;;18.41;56.98;100665.41;5055831;28;19912;-57
2023/05/27 06:21:01;;;;;;;;;;;;;;;18.44;57.56;100666.13;5072438;28;20272;-57
2023/05/27 06:23:26;;;;;;;;;;;;;;;18.57;56.61;100666.31;5072590;28;19913;-57
2023/05/27 06:25:51;;;;;;;;;;;;;;;18.64;56.11;100665.03;5071655;28;19982;-57
2023/05/27 06:28:16;;;;;;;;;;;;;;;18.77;55.75;100669.66;5069076;28;20272;-57
2023/05/27 06:30:42;;;;;;;;;;;;;;;18.91;56.78;100666.19;5068837;28;19909;-57
2023/05/27 06:33:08;;;;;;;;;;;;;;;19.07;55.20;100672.47;5071960;28;19931;-57
2023/05/27 06:35:33;;;;;;;;;;;;;;;19.07;55.88;100661.69;5066044;28;19954;-56
2023/05/27 06:37:58;;;;;;;;;;;;;;;18.97;53.87;100657.75;5052938;28;20720;-57
2023/05/27 06:40:24;;;;;;;;;;;;;;;18.96;54.40;100659.56;5061560;28;19955;-56
2023/05/27 06:42:49;;;;;;;;;;;;;;;19.10;54.45;100658.78;5072101;28;19912;-56
2023/05/27 06:45:14;;;;;;;;;;;;;;;19.38;55.70;100667.06;5071827;28;19927;-56
2023/05/27 06:47:40;;;;;;;;;;;;;;;19.47;53.50;100658.47;5072097;28;19947;-57
2023/05/27 06:50:05;;;;;;;;;;;;;;;19.70;53.83;100657.97;5071328;28;19916;-57
2023/05/27 06:52:31;;;;;;;;;;;;;;;19.71;52.89;100659.69;5071355;28;20441;-56
2023/05/27 06:54:56;;;;;;;;;;;;;;;19.93;54.10;100656.56;5070821;28;20400;-57
2023/05/27 06:57:21;;;;;;;;;;;;;;;19.79;51.82;100662.78;5071783;28;19913;-56
2023/05/27 06:59:46;;;;;;;;;;;;;;;19.91;52.96;100659.38;5071866;28;20022;-56
2023/05/27 07:02:12;;;;;;;;;;;;;;;19.89;51.79;100663.97;5059077;28;20363;-56
2023/05/27 07:04:37;;;;;;;;;;;;;;;20.07;52.14;100657.47;5057259;28;19920;-57
2023/05/27 07:07:02;;;;;;;;;;;;;;;20.17;50.18;100663.19;5070778;28;19970;-56
2023/05/27 07:09:28;;;;;;;;;;;;;;;20.34;49.88;100661.22;5071768;28;19917;-57
2023/05/27 07:11:53;;;;;;;;;;;;;;;20.58;50.74;100670.47;5063592;28;19939;-56
2023/05/27 07:14:18;;;;;;;;;;;;;;;20.87;50.42;100666.75;5054555;28;20414;-57
2023/05/27 07:16:43;;;;;;;;;;;;;;;20.95;49.29;100669.84;5057629;28;19927;-57
2023/05/27 07:19:09;;;;;;;;;;;;;;;21.10;49.19;100667.16;5051340;28;19919;-56
2023/05/27 07:21:34;;;;;;;;;;;;;;;21.25;48.56;100667.00;5051344;28;20428;-57
2023/05/27 07:24:03;;;;;;;;;;;;;;;21.45;48.09;100668.41;5051691;28;19989;-56
2023/05/27 07:26:29;;;;;;;;;;;;;;;21.67;48.19;100674.09;5065376;28;19928;-57
2023/05/27 07:28:54;;;;;;;;;;;;;;;21.56;47.12;100673.97;5068694;28;20406;-56
2023/05/27 07:31:19;;;;;;;;;;;;;;;21.66;47.25;100675.09;5060828;28;19920;-56
2023/05/27 07:33:44;;;;;;;;;;;;;;;21.78;47.15;100663.44;5071056;28;19912;-57
2023/05/27 07:36:10;;;;;;;;;;;;;;;22.13;47.64;100673.59;5070196;28;20003;-56
2023/05/27 07:38:35;;;;;;;;;;;;;;;22.48;47.37;100667.53;5071260;28;19912;-57
2023/05/27 07:41:00;;;;;;;;;;;;;;;22.79;46.55;100667.97;5071018;28;19940;-56
2023/05/27 07:43:26;;;;;;;;;;;;;;;23.16;45.27;100666.97;5065993;28;19916;-57
2023/05/27 07:45:51;;;;;;;;;;;;;;;23.52;45.24;100652.56;5069701;28;19912;-57
2023/05/27 07:48:16;;;;;;;;;;;;;;;23.79;43.41;100652.31;5067720;28;19926;-57
2023/05/27 07:50:41;;;;;;;;;;;;;;;24.04;43.34;100644.00;5055379;28;19913;-57
2023/05/27 07:53:07;;;;;;;;;;;;;;;24.16;43.86;100643.91;5050257;28;20026;-57
2023/05/27 07:55:32;;;;;;;;;;;;;;;24.32;43.66;100644.44;5061991;28;19944;-57
2023/05/27 07:57:57;;;;;;;;;;;;;;;24.40;42.94;100646.53;5056308;28;19955;-57
2023/05/27 08:00:22;;;;;;;;;;;;;;;24.25;41.86;100648.63;5052672;28;19913;-57
2023/05/27 08:02:48;;;;;;;;;;;;;;;24.40;42.71;100641.09;5070681;28;20443;-57
2023/05/27 08:05:13;;;;;;;;;;;;;;;24.38;41.93;100643.94;5064542;28;19913;-57
2023/05/27 08:07:38;;;;;;;;;;;;;;;24.21;42.36;100652.59;5050867;28;19916;-57
2023/05/27 08:10:04;;;;;;;;;;;;;;;24.68;42.75;100637.91;5055538;28;19967;-57
2023/05/27 08:12:29;;;;;;;;;;;;;;;24.43;41.42;100641.72;5060005;28;20484;-57
2023/05/27 08:14:55;;;;;;;;;;;;;;;24.55;41.70;100637.16;5069223;28;19923;-57
2023/05/27 08:17:20;;;;;;;;;;;;;;;24.57;41.16;100632.47;5056584;28;19994;-57
2023/05/27 08:19:45;;;;;;;;;;;;;;;24.65;41.44;100629.97;5051215;28;19913;-57
2023/05/27 08:22:11;;;;;;;;;;;;;;;24.76;41.34;100623.72;5056514;28;20607;-57
2023/05/27 08:24:36;;;;;;;;;;;;;;;24.93;40.95;100626.78;5066904;28;19924;-57
2023/05/27 08:27:02;;;;;;;;;;;;;;;25.24;41.49;100625.97;5058433;28;19923;-57
2023/05/27 08:29:30;;;;;;;;;;;;;;;25.54;41.78;100620.69;5063985;28;20045;-57
2023/05/27 08:31:55;;;;;;;;;;;;;;;25.55;41.17;100622.41;5066959;28;20369;-57
2023/05/27 08:34:21;;;;;;;;;;;;;;;25.64;40.58;100618.94;5068076;28;19952;-57
2023/05/27 08:36:46;;;;;;;;;;;;;;;25.67;40.73;100618.66;5068285;28;19920;-57
2023/05/27 08:39:12;;;;;;;;;;;;;;;25.99;39.32;100615.91;5069109;28;19944;-57
2023/05/27 08:41:38;;;;;;;;;;;;;;;26.23;40.11;100618.41;5059150;28;20376;-57
2023/05/27 08:44:03;;;;;;;;;;;;;;;26.28;40.27;100614.25;5069249;28;19912;-57
2023/05/27 08:46:29;;;;;;;;;;;;;;;26.42;40.43;100608.44;5059660;28;19927;-57
2023/05/27 08:48:57;;;;;;;;;;;;;;;26.54;40.40;100607.34;5068854;28;19969;-57
2023/05/27 08:51:23;;;;;;;;;;;;;;;26.60;38.43;100605.94;5066908;28;19978;-57
2023/05/27 08:53:48;;;;;;;;;;;;;;;26.68;38.89;100606.13;5052199;28;19951;-57
2023/05/27 08:56:19;;;;;;;;;;;;;;;26.42;39.06;100608.44;5049748;28;20575;-57
2023/05/27 08:58:45;;;;;;;;;;;;;;;26.19;38.72;100606.00;5055156;28;19999;-57
2023/05/27 09:01:10;;;;;;;;;;;;;;;26.34;38.79;100600.09;5048851;28;20000;-57
2023/05/27 09:03:36;;;;;;;;;;;;;;;26.37;38.75;100599.81;5056443;28;19977;-57
2023/05/27 09:06:04;;;;;;;;;;;;;;;26.55;38.88;100591.84;5053075;28;19913;-57
2023/05/27 09:08:29;;;;;;;;;;;;;;;26.88;39.18;100594.28;5048822;28;19923;-57
2023/05/27 09:10:55;;;;;;;;;;;;;;;27.06;39.98;100593.47;5052192;28;20375;-57
2023/05/27 09:13:29;;;;;;;;;;;;;;;27.07;39.27;100591.59;5048790;28;19913;-57
2023/05/27 09:15:59;;;;;;;;;;;;;;;26.90;38.72;100597.75;5057973;28;19916;-57
2023/05/27 09:18:25;;;;;;;;;;;;;;;26.65;39.06;100590.91;5050326;28;20000;-57
2023/05/27 09:20:53;;;;;;;;;;;;;;;26.55;39.00;100600.03;5049046;28;19913;-57
2023/05/27 09:23:18;;;;;;;;;;;;;;;26.76;39.76;100579.88;5061357;28;19987;-57
2023/05/27 09:25:43;;;;;;;;;;;;;;;27.00;39.20;100587.72;5066626;28;20027;-57
2023/05/27 09:28:09;;;;;;;;;;;;;;;27.36;38.79;100584.34;5067530;28;19912;-57
2023/05/27 09:30:35;;;;;;;;;;;;;;;27.55;37.90;100580.75;5062695;28;19959;-57
2023/05/27 09:33:02;;;;;;;;;;;;;;;27.70;37.49;100585.63;5048773;28;20337;-57
2023/05/27 09:35:27;;;;;;;;;;;;;;;27.96;37.86;100583.19;5056148;28;19952;-57
2023/05/27 09:37:53;;;;;;;;;;;;;;;28.36;38.24;100573.75;5048990;28;19948;-57
2023/05/27 09:40:18;;;;;;;;;;;;;;;28.28;36.75;100581.84;5049591;28;19913;-57
2023/05/27 09:42:43;;;;;;;;;;;;;;;28.19;36.89;100579.97;5066045;28;19908;-57
2023/05/27 09:45:18;;;;;;;;;;;;;;;28.06;37.01;100571.22;5068656;28;19921;-57
2023/05/27 09:47:47;;;;;;;;;;;;;;;27.67;36.87;100572.28;5065314;28;19917;-57
2023/05/27 09:50:15;;;;;;;;;;;;;;;27.54;37.44;100571.69;5052613;28;19909;-57
2023/05/27 09:52:41;;;;;;;;;;;;;;;28.10;38.38;100569.06;5061895;28;19917;-57
2023/05/27 09:55:07;;;;;;;;;;;;;;;27.91;38.25;100575.44;5052120;28;19909;-58
2023/05/27 09:57:33;;;;;;;;;;;;;;;27.73;38.15;100560.75;5062935;28;19959;-57
2023/05/27 09:59:59;;;;;;;;;;;;;;;28.01;38.81;100559.00;5066129;28;19954;-57
2023/05/27 10:02:25;;;;;;;;;;;;;;;28.11;37.99;100560.69;5052232;28;19948;-57
2023/05/27 10:04:50;;;;;;;;;;;;;;;27.90;37.77;100556.44;5054205;28;19966;-57
2023/05/27 10:07:18;;;;;;;;;;;;;;;28.15;37.68;100551.19;5055448;28;19920;-57
2023/05/27 10:09:44;;;;;;;;;;;;;;;28.40;37.29;100545.03;5071245;28;19908;-58
2023/05/27 10:12:10;;;;;;;;;;;;;;;28.44;35.97;100542.88;5058709;28;19919;-57
2023/05/27 10:14:35;;;;;;;;;;;;;;;28.76;37.58;100545.19;5061957;28;19916;-57
2023/05/27 10:17:00;;;;;;;;;;;;;;;28.60;37.05;100539.53;5033976;28;19963;-57
2023/05/27 10:19:26;;;;;;;;;;;;;;;28.24;36.32;100539.34;5059723;28;19963;-57
2023/05/27 10:21:51;;;;;;;;;;;;;;;28.50;38.13;100533.22;5069817;28;19908;-57
2023/05/27 10:24:17;;;;;;;;;;;;;;;28.83;37.15;100527.16;5070044;28;20380;-57
2023/05/27 10:26:45;;;;;;;;;;;;;;;29.14;37.34;100529.38;5060838;28;19975;-57
2023/05/27 10:29:12;;;;;;;;;;;;;;;29.28;37.34;100530.72;5057973;28;19924;-57
2023/05/27 10:31:47;;;;;;;;;;;;;;;29.19;36.77;100520.72;5053602;28;19982;-57
2023/05/27 10:34:13;;;;;;;;;;;;;;;29.48;37.30;100526.81;5066911;28;19912;-57
2023/05/27 10:36:38;;;;;;;;;;;;;;;29.38;36.12;100515.06;5062937;28;19923;-57
2023/05/27 10:39:05;;;;;;;;;;;;;;;29.24;35.30;100513.72;5062255;28;19962;-57
2023/05/27 10:41:49;;;;;;;;;;;;;;;29.42;36.72;100517.31;5058311;28;19916;-57
2023/05/27 10:44:25;;;;;;;;;;;;;;;29.54;34.65;100518.81;5063521;28;19913;-57
2023/05/27 10:46:58;;;;;;;;;;;;;;;29.59;36.23;100510.09;5053629;28;20367;-57
2023/05/27 10:49:25;;;;;;;;;;;;;;;29.73;37.67;100512.31;5052122;28;20031;-57
2023/05/27 10:51:51;;;;;;;;;;;;;;;29.83;36.33;100521.31;5057969;28;19927;-57
2023/05/27 10:54:18;;;;;;;;;;;;;;;29.72;36.37;100523.47;5050380;28;20005;-57
2023/05/27 10:56:50;;;;;;;;;;;;;;;29.72;36.80;100513.31;5054362;28;19916;-57
2023/05/27 10:59:20;;;;;;;;;;;;;;;29.82;36.33;100514.09;5063459;28;19989;-57
2023/05/27 11:01:46;;;;;;;;;;;;;;;30.01;36.96;100502.91;5069511;28;20292;-57
2023/05/27 11:04:12;;;;;;;;;;;;;;;29.95;35.78;100500.78;5066652;28;20419;-57
2023/05/27 11:06:37;;;;;;;;;;;;;;;29.92;37.11;100492.91;5050629;28;19925;-57
2023/05/27 11:09:03;;;;;;;;;;;;;;;30.10;37.49;100490.09;5057299;28;20405;-57
2023/05/27 11:11:29;;;;;;;;;;;;;;;30.56;35.25;100493.25;5060093;28;20348;-58
2023/05/27 11:13:54;;;;;;;;;;;;;;;30.60;35.27;100480.94;5050396;28;19920;-58
2023/05/27 11:16:19;;;;;;;;;;;;;;;31.09;35.59;100483.84;5064558;28;19916;-57
2023/05/27 11:18:45;;;;;;;;;;;;;;;31.31;34.58;100485.91;5051565;28;19923;-58
2023/05/27 11:21:11;;;;;;;;;;;;;;;31.58;35.08;100480.13;5052021;28;20011;-57
2023/05/27 11:23:39;;;;;;;;;;;;;;;31.89;35.07;100467.38;5051927;28;19916;-57
2023/05/27 11:26:04;;;;;;;;;;;;;;;31.69;33.78;100466.00;5065122;28;19920;-57
2023/05/27 11:28:30;;;;;;;;;;;;;;;31.42;33.96;100463.59;5051290;28;19919;-57
2023/05/27 11:31:02;;;;;;;;;;;;;;;31.65;33.84;100462.72;5056975;28;19912;-57
2023/05/27 11:33:31;;;;;;;;;;;;;;;31.60;33.63;100456.88;5061991;28;19916;-57
2023/05/27 11:36:03;;;;;;;;;;;;;;;31.41;34.39;100443.50;5060667;28;20572;-57
2023/05/27 11:38:29;;;;;;;;;;;;;;;31.32;34.43;100440.94;5033231;28;20003;-57
2023/05/27 11:40:54;;;;;;;;;;;;;;;31.24;34.83;100432.63;5062975;28;20350;-57
2023/05/27 11:43:19;;;;;;;;;;;;;;;31.21;33.77;100432.97;5057417;28;20398;-57
2023/05/27 11:45:45;;;;;;;;;;;;;;;31.30;35.01;100431.97;5057959;28;19920;-57
2023/05/27 11:48:10;;;;;;;;;;;;;;;30.94;34.16;100420.41;5060206;28;19928;-57
2023/05/27 11:50:35;;;;;;;;;;;;;;;31.10;35.96;100416.84;5053706;28;19912;-57
2023/05/27 11:53:02;;;;;;;;;;;;;;;31.23;34.57;100409.81;5051821;28;20292;-58
2023/05/27 11:55:29;;;;;;;;;;;;;;;31.16;34.25;100416.13;5056730;28;19995;-58
2023/05/27 11:57:55;;;;;;;;;;;;;;;31.08;34.09;100410.66;5054984;28;19999;-57
2023/05/27 12:00:20;;;;;;;;;;;;;;;31.40;34.58;100414.28;5056376;28;20011;-57
2023/05/27 12:02:45;;;;;;;;;;;;;;;31.63;35.94;100397.94;5054645;28;19932;-57
2023/05/27 12:05:11;;;;;;;;;;;;;;;31.34;35.16;100400.34;5055963;28;19932;-57
2023/05/27 12:07:40;;;;;;;;;;;;;;;31.31;34.98;100407.03;5050161;28;19919;-58
2023/05/27 12:10:05;;;;;;;;;;;;;;;31.14;35.42;100404.47;5054353;28;19916;-57
2023/05/27 12:12:33;;;;;;;;;;;;;;;30.97;35.15;100400.00;5050686;28;19919;-57
2023/05/27 12:14:59;;;;;;;;;;;;;;;31.20;34.90;100399.16;5051182;28;19916;-58
2023/05/27 12:17:24;;;;;;;;;;;;;;;31.48;34.60;100392.28;5058709;28;20379;-58
2023/05/27 12:19:50;;;;;;;;;;;;;;;31.48;33.37;100389.53;5055634;28;19921;-57
2023/05/27 12:22:15;;;;;;;;;;;;;;;31.63;33.35;100386.94;5057655;28;19916;-56
2023/05/27 12:24:40;;;;;;;;;;;;;;;31.73;34.07;100384.84;5057904;28;19917;-56
2023/05/27 12:27:05;;;;;;;;;;;;;;;31.47;33.89;100381.44;5050706;28;19916;-56
2023/05/27 12:29:34;;;;;;;;;;;;;;;31.76;34.82;100381.72;5048839;28;19913;-56